Time;durP1;ratioP1;P1;durP2;ratioP2;P2;SDS_P1;SDS_P2;PMS_P1;PMS_P2;Temp;Humidity;BMP_temperature;BMP_pressure;BME280_temperature;BME280_humidity;BME280_pressure;Samples;Min_cycle;Max_cycle;Signal;HPM_P1;HPM_P2
2023/05/12 00:01:55;;;;;;;;;;;17.40;65.60;;;;;;4973318;28;19914;-61
2023/05/12 00:04:20;;;;;;;;;;;17.40;65.70;;;;;;4972959;28;19914;-62
2023/05/12 00:06:46;;;;;;;;;;;17.30;65.70;;;;;;4973014;28;19914;-61
2023/05/12 00:09:11;;;;;;;;;;;17.30;65.70;;;;;;4973143;28;19971;-62
2023/05/12 00:11:37;;;;;;;;;;;17.30;65.80;;;;;;4973423;28;19921;-62
2023/05/12 00:14:03;;;;;;;;;;;17.30;65.90;;;;;;4972760;28;20016;-62
2023/05/12 00:16:28;;;;;;;;;;;17.30;66.00;;;;;;4973423;28;19914;-62
2023/05/12 00:18:53;;;;;;;;;;;17.20;66.10;;;;;;4973177;28;19914;-62
2023/05/12 00:21:19;;;;;;;;;;;17.30;66.30;;;;;;4973089;28;20005;-61
2023/05/12 00:23:44;;;;;;;;;;;17.20;66.10;;;;;;4972745;28;19921;-62
2023/05/12 00:26:10;;;;;;;;;;;17.20;66.00;;;;;;4973163;28;19922;-62
2023/05/12 00:28:35;;;;;;;;;;;17.20;66.00;;;;;;4972635;28;19921;-61
2023/05/12 00:31:02;;;;;;;;;;;17.10;65.90;;;;;;4973105;28;19914;-64
2023/05/12 00:33:28;;;;;;;;;;;17.10;66.10;;;;;;4972825;28;19922;-61
2023/05/12 00:35:53;;;;;;;;;;;17.00;66.30;;;;;;4973029;28;19921;-62
2023/05/12 00:38:19;;;;;;;;;;;17.00;66.50;;;;;;4972644;28;19918;-62
2023/05/12 00:40:44;;;;;;;;;;;17.00;66.50;;;;;;4972925;28;19921;-62
2023/05/12 00:43:10;;;;;;;;;;;17.00;66.80;;;;;;4972667;28;20285;-62
2023/05/12 00:45:35;;;;;;;;;;;17.00;66.70;;;;;;4955363;28;20523;-62
2023/05/12 00:48:02;;;;;;;;;;;17.00;66.20;;;;;;4972649;28;19961;-62
2023/05/12 00:50:27;;;;;;;;;;;16.90;66.00;;;;;;4972783;28;19918;-62
2023/05/12 00:52:53;;;;;;;;;;;16.80;66.00;;;;;;4955104;28;20382;-62
2023/05/12 00:55:18;;;;;;;;;;;16.80;65.90;;;;;;4972666;28;20002;-63
2023/05/12 00:57:44;;;;;;;;;;;16.80;65.90;;;;;;4972539;28;19914;-61
2023/05/12 01:00:10;;;;;;;;;;;16.70;65.70;;;;;;4972676;28;19918;-62
2023/05/12 01:02:35;;;;;;;;;;;16.70;65.70;;;;;;4973299;28;19941;-62
2023/05/12 01:05:02;;;;;;;;;;;16.60;65.80;;;;;;4976462;28;20373;-62
2023/05/12 01:07:30;;;;;;;;;;;16.60;65.80;;;;;;4976068;28;20434;-62
2023/05/12 01:09:56;;;;;;;;;;;16.50;66.10;;;;;;4976297;28;19914;-61
2023/05/12 01:12:22;;;;;;;;;;;16.60;66.20;;;;;;4975975;28;19914;-62
2023/05/12 01:14:47;;;;;;;;;;;16.50;66.20;;;;;;4976160;28;19921;-62
2023/05/12 01:17:16;;;;;;;;;;;16.50;66.00;;;;;;4976054;28;19961;-61
2023/05/12 01:19:48;;;;;;;;;;;16.50;65.80;;;;;;4976164;28;19996;-64
2023/05/12 01:22:14;;;;;;;;;;;16.40;65.70;;;;;;4975701;28;19922;-62
2023/05/12 01:24:50;;;;;;;;;;;16.40;65.60;;;;;;4976047;28;19914;-64
2023/05/12 01:27:16;;;;;;;;;;;16.40;65.60;;;;;;4975879;28;20333;-62
2023/05/12 01:29:42;;;;;;;;;;;16.30;65.60;;;;;;4976039;28;19917;-62
2023/05/12 01:32:08;;;;;;;;;;;16.30;65.60;;;;;;4975714;28;19918;-62
2023/05/12 01:34:34;;;;;;;;;;;16.30;65.80;;;;;;4975678;28;20718;-62
2023/05/12 01:37:00;;;;;;;;;;;16.20;65.60;;;;;;4975541;28;19922;-63
2023/05/12 01:39:25;;;;;;;;;;;16.30;65.50;;;;;;4975552;28;20395;-62
2023/05/12 01:41:51;;;;;;;;;;;16.20;65.40;;;;;;4958147;28;19965;-61
2023/05/12 01:44:16;;;;;;;;;;;16.20;65.40;;;;;;4975503;28;20392;-63
2023/05/12 01:46:41;;;;;;;;;;;16.10;65.50;;;;;;4975472;28;19918;-62
2023/05/12 01:49:07;;;;;;;;;;;16.10;65.60;;;;;;4975329;28;19910;-63
2023/05/12 01:51:32;;;;;;;;;;;16.10;65.60;;;;;;4975757;28;19918;-62
2023/05/12 01:53:58;;;;;;;;;;;16.00;65.50;;;;;;4975238;28;19944;-62
2023/05/12 01:56:23;;;;;;;;;;;16.00;65.50;;;;;;4975499;28;19968;-61
2023/05/12 01:58:49;;;;;;;;;;;15.90;65.50;;;;;;4975343;28;20293;-63
2023/05/12 02:01:14;;;;;;;;;;;15.90;65.70;;;;;;4975683;28;20421;-61
2023/05/12 02:03:39;;;;;;;;;;;15.90;65.90;;;;;;4975238;28;20279;-66
2023/05/12 02:06:05;;;;;;;;;;;16.00;66.10;;;;;;4978387;28;19914;-67
2023/05/12 02:08:30;;;;;;;;;;;16.00;66.30;;;;;;4978004;28;19968;-67
2023/05/12 02:11:03;;;;;;;;;;;16.00;66.30;;;;;;4978237;28;19914;-67
2023/05/12 02:13:29;;;;;;;;;;;16.10;66.50;;;;;;4977379;28;19918;-67
2023/05/12 02:15:54;;;;;;;;;;;16.20;66.50;;;;;;4975752;28;20010;-63
2023/05/12 02:18:20;;;;;;;;;;;16.20;66.70;;;;;;4975099;28;19922;-65
2023/05/12 02:20:45;;;;;;;;;;;16.30;66.70;;;;;;4975272;28;20309;-62
2023/05/12 02:23:11;;;;;;;;;;;16.40;66.60;;;;;;4975181;28;19914;-62
2023/05/12 02:25:36;;;;;;;;;;;16.40;66.60;;;;;;4975052;28;19914;-62
2023/05/12 02:28:02;;;;;;;;;;;16.50;66.60;;;;;;4974791;28;19914;-62
2023/05/12 02:30:28;;;;;;;;;;;16.50;66.60;;;;;;4974959;28;20004;-62
2023/05/12 02:32:53;;;;;;;;;;;16.50;66.60;;;;;;4974964;28;20010;-62
2023/05/12 02:35:20;;;;;;;;;;;16.60;66.60;;;;;;4974598;28;20456;-62
2023/05/12 02:37:45;;;;;;;;;;;16.60;66.60;;;;;;4974575;28;19918;-62
2023/05/12 02:40:11;;;;;;;;;;;16.70;66.60;;;;;;4974749;28;20001;-63
2023/05/12 02:42:37;;;;;;;;;;;16.70;66.70;;;;;;4974445;28;20045;-62
2023/05/12 02:45:02;;;;;;;;;;;16.70;66.70;;;;;;4974637;28;19921;-63
2023/05/12 02:47:30;;;;;;;;;;;16.70;66.60;;;;;;4974166;28;20298;-63
2023/05/12 02:49:55;;;;;;;;;;;16.80;66.60;;;;;;4974731;28;19925;-62
2023/05/12 02:52:21;;;;;;;;;;;16.80;66.60;;;;;;4974428;28;19914;-62
2023/05/12 02:54:46;;;;;;;;;;;16.80;66.50;;;;;;4974354;28;19918;-62
2023/05/12 02:57:12;;;;;;;;;;;16.80;66.50;;;;;;4974264;28;19964;-62
2023/05/12 02:59:37;;;;;;;;;;;16.80;66.50;;;;;;4974235;28;20083;-62
2023/05/12 03:02:04;;;;;;;;;;;16.80;66.50;;;;;;4974151;28;19941;-64
2023/05/12 03:04:29;;;;;;;;;;;16.80;66.50;;;;;;4974365;28;20001;-62
2023/05/12 03:06:55;;;;;;;;;;;16.80;66.50;;;;;;4974450;28;20001;-62
2023/05/12 03:09:21;;;;;;;;;;;16.80;66.50;;;;;;4974000;28;20413;-63
2023/05/12 03:11:46;;;;;;;;;;;16.80;66.50;;;;;;4973983;28;20013;-62
2023/05/12 03:14:12;;;;;;;;;;;16.80;66.50;;;;;;4973817;28;19914;-62
2023/05/12 03:16:37;;;;;;;;;;;16.80;66.60;;;;;;4974396;28;20269;-62
2023/05/12 03:19:03;;;;;;;;;;;16.90;66.50;;;;;;4973810;28;19918;-65
2023/05/12 03:21:29;;;;;;;;;;;16.90;66.50;;;;;;4974615;28;19921;-62
2023/05/12 03:23:56;;;;;;;;;;;16.80;66.50;;;;;;4973720;28;19914;-63
2023/05/12 03:26:21;;;;;;;;;;;16.90;66.60;;;;;;4973550;28;19918;-63
2023/05/12 03:28:47;;;;;;;;;;;16.80;66.70;;;;;;4973610;28;19918;-62
2023/05/12 03:31:12;;;;;;;;;;;16.90;66.70;;;;;;4974020;28;19921;-62
2023/05/12 03:33:37;;;;;;;;;;;16.90;66.70;;;;;;4973449;28;19972;-62
2023/05/12 03:36:03;;;;;;;;;;;16.90;66.70;;;;;;4974145;28;19942;-63
2023/05/12 03:38:29;;;;;;;;;;;17.00;66.70;;;;;;4974034;28;19993;-63
2023/05/12 03:41:04;;;;;;;;;;;16.90;66.60;;;;;;4956469;28;20388;-62
2023/05/12 03:43:29;;;;;;;;;;;16.90;66.50;;;;;;4973438;28;19914;-62
2023/05/12 03:45:55;;;;;;;;;;;16.90;66.50;;;;;;4973944;28;19921;-62
2023/05/12 03:48:20;;;;;;;;;;;16.90;66.40;;;;;;4973351;28;19922;-64
2023/05/12 03:50:45;;;;;;;;;;;16.90;66.40;;;;;;4973915;28;19914;-62
2023/05/12 03:53:11;;;;;;;;;;;17.00;66.40;;;;;;4973417;28;20290;-63
2023/05/12 03:55:36;;;;;;;;;;;16.90;66.40;;;;;;4973899;28;19914;-62
2023/05/12 03:58:02;;;;;;;;;;;16.90;66.50;;;;;;4973383;28;19922;-62
2023/05/12 04:00:27;;;;;;;;;;;17.00;66.50;;;;;;4973656;28;20341;-62
2023/05/12 04:02:53;;;;;;;;;;;16.90;66.50;;;;;;4973192;28;20005;-63
2023/05/12 04:05:18;;;;;;;;;;;17.00;66.60;;;;;;4973475;28;19922;-62
2023/05/12 04:07:43;;;;;;;;;;;17.00;66.60;;;;;;4973202;28;19915;-63
2023/05/12 04:10:09;;;;;;;;;;;17.10;66.70;;;;;;4973537;28;19914;-63
2023/05/12 04:12:34;;;;;;;;;;;17.10;66.70;;;;;;4973094;28;19914;-63
2023/05/12 04:15:00;;;;;;;;;;;17.20;66.70;;;;;;4973153;28;19918;-63
2023/05/12 04:17:25;;;;;;;;;;;17.20;66.70;;;;;;4973094;28;20278;-62
2023/05/12 04:19:52;;;;;;;;;;;17.20;66.70;;;;;;4973053;28;20037;-62
2023/05/12 04:22:17;;;;;;;;;;;17.30;66.70;;;;;;4972727;28;19922;-62
2023/05/12 04:24:43;;;;;;;;;;;17.30;66.70;;;;;;4973277;28;19914;-62
2023/05/12 04:27:08;;;;;;;;;;;17.40;66.70;;;;;;4955507;28;20400;-62
2023/05/12 04:29:34;;;;;;;;;;;17.50;66.70;;;;;;4955906;28;19957;-62
2023/05/12 04:31:59;;;;;;;;;;;17.50;66.60;;;;;;4973022;28;19915;-62
2023/05/12 04:34:25;;;;;;;;;;;17.60;66.60;;;;;;4972601;28;20330;-62
2023/05/12 04:36:50;;;;;;;;;;;17.60;66.60;;;;;;4972787;28;19914;-63
2023/05/12 04:39:16;;;;;;;;;;;17.70;66.60;;;;;;4976462;28;19911;-62
2023/05/12 04:41:41;;;;;;;;;;;17.70;66.60;;;;;;4976854;28;20371;-62
2023/05/12 04:44:07;;;;;;;;;;;17.80;66.60;;;;;;4976972;28;19957;-62
2023/05/12 04:46:32;;;;;;;;;;;17.80;66.70;;;;;;4976998;28;19954;-62
2023/05/12 04:48:57;;;;;;;;;;;17.80;66.60;;;;;;4976959;28;19958;-63
2023/05/12 04:51:23;;;;;;;;;;;17.80;66.60;;;;;;4977040;28;19918;-63
2023/05/12 04:53:48;;;;;;;;;;;17.90;66.60;;;;;;4976747;28;19918;-62
2023/05/12 04:56:14;;;;;;;;;;;18.00;66.60;;;;;;4976863;28;19914;-62
2023/05/12 04:58:39;;;;;;;;;;;18.00;66.70;;;;;;4959150;28;19914;-63
2023/05/12 05:01:05;;;;;;;;;;;18.00;66.80;;;;;;4976910;28;19997;-62
2023/05/12 05:03:30;;;;;;;;;;;18.10;66.90;;;;;;4976383;28;19914;-62
2023/05/12 05:05:56;;;;;;;;;;;18.20;66.90;;;;;;4976659;28;19925;-63
2023/05/12 05:08:21;;;;;;;;;;;18.30;66.90;;;;;;4976584;28;19920;-63
2023/05/12 05:10:46;;;;;;;;;;;18.30;66.80;;;;;;4976629;28;20317;-62
2023/05/12 05:13:12;;;;;;;;;;;18.40;66.70;;;;;;4976196;28;20382;-62
2023/05/12 05:15:37;;;;;;;;;;;18.40;66.70;;;;;;4959034;28;19953;-62
2023/05/12 05:18:04;;;;;;;;;;;18.50;66.60;;;;;;4976186;28;20057;-62
2023/05/12 05:20:31;;;;;;;;;;;18.50;66.50;;;;;;4976510;28;20009;-63
2023/05/12 05:22:57;;;;;;;;;;;18.60;66.50;;;;;;4976285;28;19958;-63
2023/05/12 05:25:22;;;;;;;;;;;18.70;66.60;;;;;;4976322;28;19946;-63
2023/05/12 05:27:48;;;;;;;;;;;18.70;66.60;;;;;;4976026;28;20321;-62
2023/05/12 05:30:13;;;;;;;;;;;18.70;66.60;;;;;;4976258;28;19976;-62
2023/05/12 05:32:39;;;;;;;;;;;18.80;66.60;;;;;;4975924;28;20334;-64
2023/05/12 05:35:05;;;;;;;;;;;18.80;66.60;;;;;;4984283;28;20012;-64
2023/05/12 05:37:30;;;;;;;;;;;18.90;66.70;;;;;;4982185;28;19922;-62
2023/05/12 05:39:56;;;;;;;;;;;19.00;66.70;;;;;;4995614;28;19956;-64
2023/05/12 05:42:21;;;;;;;;;;;19.00;66.70;;;;;;4994795;28;19963;-63
2023/05/12 05:44:47;;;;;;;;;;;19.10;66.70;;;;;;4994485;28;20349;-63
2023/05/12 05:47:12;;;;;;;;;;;19.10;66.60;;;;;;4993467;28;19932;-63
2023/05/12 05:49:38;;;;;;;;;;;19.20;66.70;;;;;;4994823;28;20377;-62
2023/05/12 05:52:03;;;;;;;;;;;19.30;66.80;;;;;;4989186;28;20012;-63
2023/05/12 05:54:28;;;;;;;;;;;19.30;66.80;;;;;;4994340;28;19918;-62
2023/05/12 05:56:54;;;;;;;;;;;19.50;66.90;;;;;;4997051;28;19925;-62
2023/05/12 05:59:19;;;;;;;;;;;19.60;66.70;;;;;;4999045;28;19917;-62
2023/05/12 06:01:45;;;;;;;;;;;19.70;66.50;;;;;;4994730;28;19918;-62
2023/05/12 06:04:10;;;;;;;;;;;19.70;66.70;;;;;;4993361;28;19910;-62
2023/05/12 06:06:35;;;;;;;;;;;19.80;66.20;;;;;;4994237;28;19918;-62
2023/05/12 06:09:01;;;;;;;;;;;19.80;66.10;;;;;;4994674;28;20298;-63
2023/05/12 06:11:26;;;;;;;;;;;19.80;66.20;;;;;;4982312;28;19973;-62
2023/05/12 06:13:52;;;;;;;;;;;19.90;66.50;;;;;;4991941;28;19925;-63
2023/05/12 06:16:17;;;;;;;;;;;20.00;66.70;;;;;;4994696;28;19921;-63
2023/05/12 06:18:43;;;;;;;;;;;20.00;66.70;;;;;;4994503;28;19932;-63
2023/05/12 06:21:08;;;;;;;;;;;20.10;66.60;;;;;;4995098;28;19910;-63
2023/05/12 06:23:33;;;;;;;;;;;20.10;66.50;;;;;;4993392;28;19926;-63
2023/05/12 06:25:59;;;;;;;;;;;20.20;66.60;;;;;;4992551;28;20400;-64
2023/05/12 06:28:24;;;;;;;;;;;20.20;66.60;;;;;;4993320;28;19918;-65
2023/05/12 06:30:50;;;;;;;;;;;20.30;66.60;;;;;;4993612;28;19921;-63
2023/05/12 06:33:15;;;;;;;;;;;20.30;66.70;;;;;;4993587;28;19924;-62
2023/05/12 06:35:41;;;;;;;;;;;20.40;66.80;;;;;;4993933;28;19945;-63
2023/05/12 06:38:06;;;;;;;;;;;20.50;66.90;;;;;;4984028;28;19940;-62
2023/05/12 06:40:32;;;;;;;;;;;20.60;66.90;;;;;;4993140;28;20310;-63
2023/05/12 06:42:57;;;;;;;;;;;20.70;66.90;;;;;;4993053;28;19925;-63
2023/05/12 06:45:23;;;;;;;;;;;20.70;66.70;;;;;;4994316;28;19921;-63
2023/05/12 06:47:49;;;;;;;;;;;20.80;66.90;;;;;;4992954;28;19922;-63
2023/05/12 06:50:15;;;;;;;;;;;20.90;67.10;;;;;;4971830;28;20285;-65
2023/05/12 06:52:42;;;;;;;;;;;21.10;67.40;;;;;;4994027;28;19917;-63
2023/05/12 06:55:07;;;;;;;;;;;21.30;67.40;;;;;;4993758;28;20020;-65
2023/05/12 06:57:33;;;;;;;;;;;21.40;67.40;;;;;;4986904;28;19976;-63
2023/05/12 06:59:59;;;;;;;;;;;21.60;67.20;;;;;;4984943;28;19914;-68
2023/05/12 07:02:24;;;;;;;;;;;21.70;67.50;;;;;;5005631;28;20025;-68
2023/05/12 07:04:50;;;;;;;;;;;21.80;67.30;;;;;;5005825;28;19922;-69
2023/05/12 07:07:15;;;;;;;;;;;22.00;67.30;;;;;;5006365;28;20016;-68
2023/05/12 07:09:41;;;;;;;;;;;22.20;67.10;;;;;;5007273;28;19989;-68
2023/05/12 07:12:07;;;;;;;;;;;22.30;66.90;;;;;;5008677;28;19922;-69
2023/05/12 07:14:32;;;;;;;;;;;22.30;66.90;;;;;;5008836;28;19943;-68
2023/05/12 07:16:58;;;;;;;;;;;22.50;67.00;;;;;;5010535;28;19918;-68
2023/05/12 07:19:23;;;;;;;;;;;22.60;67.30;;;;;;5004138;28;19916;-68
2023/05/12 07:21:49;;;;;;;;;;;22.80;67.40;;;;;;4988162;28;19976;-68
2023/05/12 07:24:15;;;;;;;;;;;23.00;67.50;;;;;;4990278;28;19921;-69
2023/05/12 07:26:42;;;;;;;;;;;23.30;67.80;;;;;;5007123;28;19922;-69
2023/05/12 07:29:09;;;;;;;;;;;23.50;67.70;;;;;;5007832;28;19910;-69
2023/05/12 07:31:35;;;;;;;;;;;23.70;67.50;;;;;;5006559;28;19914;-69
2023/05/12 07:34:01;;;;;;;;;;;23.90;67.70;;;;;;4992730;28;19918;-69
2023/05/12 07:36:27;;;;;;;;;;;24.20;67.60;;;;;;5010736;28;19913;-69
2023/05/12 07:38:52;;;;;;;;;;;24.40;67.50;;;;;;5001514;28;19984;-64
2023/05/12 07:41:18;;;;;;;;;;;24.60;67.50;;;;;;4993738;28;20420;-64
2023/05/12 07:43:43;;;;;;;;;;;24.90;67.50;;;;;;4992862;28;19924;-64
2023/05/12 07:46:09;;;;;;;;;;;25.10;67.60;;;;;;4993287;28;20285;-63
2023/05/12 07:48:38;;;;;;;;;;;25.40;67.70;;;;;;4992583;28;19930;-63
2023/05/12 07:51:04;;;;;;;;;;;25.70;67.80;;;;;;4993174;28;19953;-63
2023/05/12 07:53:29;;;;;;;;;;;26.00;68.20;;;;;;4992706;28;20392;-63
2023/05/12 07:55:55;;;;;;;;;;;26.30;67.50;;;;;;4993053;28;20282;-63
2023/05/12 07:58:21;;;;;;;;;;;26.40;67.40;;;;;;4992598;28;20349;-66
2023/05/12 08:00:46;;;;;;;;;;;26.70;67.10;;;;;;4993273;28;19913;-63
2023/05/12 08:03:12;;;;;;;;;;;26.90;67.10;;;;;;4992571;28;19965;-63
2023/05/12 08:05:37;;;;;;;;;;;27.20;66.90;;;;;;4994267;28;19913;-64
2023/05/12 08:08:03;;;;;;;;;;;27.50;67.50;;;;;;5000507;28;19925;-64
2023/05/12 08:10:28;;;;;;;;;;;27.80;67.50;;;;;;4992880;28;19921;-64
2023/05/12 08:12:54;;;;;;;;;;;28.20;66.60;;;;;;4992209;28;19924;-64
2023/05/12 08:15:20;;;;;;;;;;;28.40;65.90;;;;;;4975457;28;19922;-63
2023/05/12 08:17:45;;;;;;;;;;;28.50;65.90;;;;;;4992264;28;19921;-63
2023/05/12 08:20:11;;;;;;;;;;;28.70;65.20;;;;;;4992430;28;19913;-63
2023/05/12 08:22:36;;;;;;;;;;;28.80;64.90;;;;;;4992395;28;19922;-63
2023/05/12 08:25:02;;;;;;;;;;;28.80;63.70;;;;;;4976706;28;20049;-63
2023/05/12 08:27:28;;;;;;;;;;;28.80;64.30;;;;;;4972553;28;19918;-63
2023/05/12 08:29:53;;;;;;;;;;;28.80;64.80;;;;;;4987684;28;20264;-63
2023/05/12 08:32:19;;;;;;;;;;;29.00;65.40;;;;;;4991944;28;19921;-63
2023/05/12 08:34:44;;;;;;;;;;;29.30;66.50;;;;;;4989957;28;20027;-63
2023/05/12 08:37:10;;;;;;;;;;;29.80;67.30;;;;;;4992233;28;19914;-63
2023/05/12 08:39:35;;;;;;;;;;;30.30;68.00;;;;;;4991211;28;19914;-63
2023/05/12 08:42:16;;;;;;;;;;;30.80;67.70;;;;;;4992295;28;19981;-63
2023/05/12 08:44:42;;;;;;;;;;;31.30;66.60;;;;;;4975297;28;19918;-63
2023/05/12 08:47:08;;;;;;;;;;;31.80;66.40;;;;;;4991464;28;19921;-63
2023/05/12 08:49:35;;;;;;;;;;;32.30;65.80;;;;;;4992150;28;19939;-63
2023/05/12 08:52:00;;;;;;;;;;;32.80;66.50;;;;;;4992143;28;19953;-64
2023/05/12 08:54:26;;;;;;;;;;;33.30;65.20;;;;;;4991242;28;20408;-63
2023/05/12 08:56:52;;;;;;;;;;;33.60;64.60;;;;;;4992230;28;19914;-62
2023/05/12 08:59:18;;;;;;;;;;;33.90;62.00;;;;;;4977881;28;19949;-62
2023/05/12 09:01:46;;;;;;;;;;;33.80;61.20;;;;;;4972557;28;19922;-62
2023/05/12 09:04:14;;;;;;;;;;;33.70;60.30;;;;;;4989771;28;19937;-65
2023/05/12 09:06:40;;;;;;;;;;;33.40;57.60;;;;;;4992605;28;19918;-63
2023/05/12 09:09:06;;;;;;;;;;;33.10;56.30;;;;;;4989801;28;19914;-63
2023/05/12 09:11:32;;;;;;;;;;;32.80;56.60;;;;;;4992411;28;20276;-63
2023/05/12 09:13:59;;;;;;;;;;;32.60;56.40;;;;;;4990117;28;19922;-64
2023/05/12 09:16:25;;;;;;;;;;;32.50;58.70;;;;;;4986034;28;19941;-63
2023/05/12 09:18:52;;;;;;;;;;;32.50;57.60;;;;;;4972748;28;19957;-62
2023/05/12 09:21:18;;;;;;;;;;;32.60;57.30;;;;;;4978083;28;20008;-62
2023/05/12 09:23:55;;;;;;;;;;;32.50;58.90;;;;;;4991592;28;19988;-62
2023/05/12 09:26:21;;;;;;;;;;;32.40;59.00;;;;;;4995208;28;19917;-63
2023/05/12 09:28:47;;;;;;;;;;;32.30;59.60;;;;;;4994260;28;20377;-62
2023/05/12 09:31:13;;;;;;;;;;;32.30;59.10;;;;;;4995648;28;19921;-62
2023/05/12 09:33:38;;;;;;;;;;;32.30;57.70;;;;;;4994881;28;19930;-63
2023/05/12 09:36:04;;;;;;;;;;;32.50;56.40;;;;;;4995066;28;19921;-63
2023/05/12 09:38:30;;;;;;;;;;;32.60;56.50;;;;;;4994816;28;20000;-63
2023/05/12 09:40:55;;;;;;;;;;;32.80;57.90;;;;;;4995648;28;20488;-63
2023/05/12 09:43:21;;;;;;;;;;;33.10;58.20;;;;;;4994548;28;20321;-63
2023/05/12 09:45:49;;;;;;;;;;;33.50;59.90;;;;;;4994404;28;19914;-63
2023/05/12 09:48:15;;;;;;;;;;;34.10;58.10;;;;;;4995155;28;19925;-62
2023/05/12 09:50:51;;;;;;;;;;;34.40;56.10;;;;;;4995052;28;20424;-63
2023/05/12 09:53:17;;;;;;;;;;;34.70;57.20;;;;;;4995420;28;19914;-63
2023/05/12 09:55:43;;;;;;;;;;;34.80;55.90;;;;;;4995005;28;19918;-65
2023/05/12 09:58:09;;;;;;;;;;;35.00;52.20;;;;;;4993718;28;20388;-64
2023/05/12 10:00:38;;;;;;;;;;;35.00;49.10;;;;;;4995569;28;19996;-67
2023/05/12 10:03:14;;;;;;;;;;;35.00;46.90;;;;;;4995224;28;19925;-64
2023/05/12 10:05:43;;;;;;;;;;;34.80;47.30;;;;;;4994701;28;20025;-66
2023/05/12 10:08:11;;;;;;;;;;;34.80;48.20;;;;;;4957903;28;20425;-62
2023/05/12 10:10:36;;;;;;;;;;;34.80;44.80;;;;;;4975986;28;19910;-63
2023/05/12 10:13:03;;;;;;;;;;;34.80;44.10;;;;;;4976622;28;20337;-62
2023/05/12 10:15:29;;;;;;;;;;;34.70;44.60;;;;;;4975380;28;19972;-62
2023/05/12 10:17:55;;;;;;;;;;;34.80;46.90;;;;;;4993198;28;19955;-63
2023/05/12 10:20:21;;;;;;;;;;;35.20;47.70;;;;;;4994682;28;19922;-63
2023/05/12 10:22:48;;;;;;;;;;;35.50;44.10;;;;;;4992906;28;19925;-62
2023/05/12 10:25:13;;;;;;;;;;;35.40;41.10;;;;;;4994194;28;20353;-62
2023/05/12 10:27:40;;;;;;;;;;;35.50;42.80;;;;;;4993556;28;19918;-63
2023/05/12 10:30:06;;;;;;;;;;;35.70;43.10;;;;;;4991550;28;20012;-62
2023/05/12 10:32:32;;;;;;;;;;;35.80;40.10;;;;;;4973326;28;19918;-62
2023/05/12 10:35:10;;;;;;;;;;;35.90;38.00;;;;;;4994514;28;20447;-62
2023/05/12 10:37:36;;;;;;;;;;;36.00;40.30;;;;;;4993575;28;19921;-62
2023/05/12 10:40:03;;;;;;;;;;;35.90;37.50;;;;;;4994213;28;19918;-63
2023/05/12 10:42:36;;;;;;;;;;;35.80;37.00;;;;;;4975417;28;19914;-62
2023/05/12 10:45:03;;;;;;;;;;;35.90;37.40;;;;;;4994455;28;19922;-62
2023/05/12 10:47:35;;;;;;;;;;;36.00;33.80;;;;;;4993313;28;19940;-61
2023/05/12 10:50:01;;;;;;;;;;;35.90;33.70;;;;;;4994247;28;20276;-62
2023/05/12 10:52:27;;;;;;;;;;;35.90;34.00;;;;;;4993663;28;19914;-62
2023/05/12 10:54:58;;;;;;;;;;;36.00;33.30;;;;;;4994005;28;19922;-62
2023/05/12 10:57:24;;;;;;;;;;;36.00;33.20;;;;;;4992918;28;19925;-62
2023/05/12 10:59:50;;;;;;;;;;;36.00;31.10;;;;;;4993684;28;20289;-61
2023/05/12 11:02:21;;;;;;;;;;;36.00;31.30;;;;;;4993778;28;20379;-64
2023/05/12 11:04:46;;;;;;;;;;;36.00;31.90;;;;;;4993816;28;20372;-62
2023/05/12 11:07:12;;;;;;;;;;;36.10;29.00;;;;;;4980851;28;19941;-62
2023/05/12 11:09:39;;;;;;;;;;;36.00;28.30;;;;;;4974153;28;19922;-63
2023/05/12 11:12:05;;;;;;;;;;;35.90;30.40;;;;;;4985227;28;19921;-63
2023/05/12 11:14:30;;;;;;;;;;;36.00;30.00;;;;;;4993317;28;19913;-62
2023/05/12 11:16:56;;;;;;;;;;;35.70;28.30;;;;;;4993064;28;19913;-63
2023/05/12 11:19:21;;;;;;;;;;;35.50;29.00;;;;;;4993401;28;19967;-62
2023/05/12 11:21:47;;;;;;;;;;;35.10;28.50;;;;;;4993303;28;20489;-64
2023/05/12 11:24:12;;;;;;;;;;;34.60;28.10;;;;;;4993406;28;20391;-61
2023/05/12 11:26:39;;;;;;;;;;;34.50;27.20;;;;;;4983903;28;19918;-64
2023/05/12 11:29:04;;;;;;;;;;;34.40;26.70;;;;;;4985155;28;20392;-63
2023/05/12 11:31:30;;;;;;;;;;;34.60;26.80;;;;;;4989861;28;19918;-64
2023/05/12 11:34:03;;;;;;;;;;;34.40;26.30;;;;;;4981687;28;20398;-64
2023/05/12 11:36:34;;;;;;;;;;;34.40;26.60;;;;;;4985193;28;19926;-62
2023/05/12 11:39:00;;;;;;;;;;;34.60;25.40;;;;;;4979344;28;20301;-64
2023/05/12 11:41:25;;;;;;;;;;;34.60;25.00;;;;;;4985876;28;19918;-63
2023/05/12 11:43:51;;;;;;;;;;;34.80;25.50;;;;;;4990666;28;19918;-63
2023/05/12 11:46:24;;;;;;;;;;;35.00;24.90;;;;;;4991821;28;19972;-61
2023/05/12 11:48:58;;;;;;;;;;;35.10;24.00;;;;;;4992323;28;19918;-61
2023/05/12 11:51:24;;;;;;;;;;;35.20;24.50;;;;;;5008014;28;20448;-63
2023/05/12 11:53:53;;;;;;;;;;;35.40;23.70;;;;;;4992585;28;20004;-62
2023/05/12 11:56:22;;;;;;;;;;;35.50;22.40;;;;;;4993280;28;19917;-62
2023/05/12 11:58:57;;;;;;;;;;;35.70;22.30;;;;;;4992209;28;20428;-62
2023/05/12 12:01:23;;;;;;;;;;;35.80;21.80;;;;;;4993096;28;19918;-63
2023/05/12 12:03:49;;;;;;;;;;;36.10;21.90;;;;;;4991901;28;19924;-62
2023/05/12 12:06:15;;;;;;;;;;;35.90;21.40;;;;;;4992562;28;19933;-63
2023/05/12 12:08:49;;;;;;;;;;;35.80;21.60;;;;;;4992671;28;20377;-62
2023/05/12 12:11:16;;;;;;;;;;;35.80;21.40;;;;;;4991146;28;20406;-62
2023/05/12 12:13:46;;;;;;;;;;;36.00;21.40;;;;;;4984562;28;19914;-62
2023/05/12 12:16:12;;;;;;;;;;;35.90;20.10;;;;;;4973644;28;20377;-65
2023/05/12 12:18:37;;;;;;;;;;;35.90;20.80;;;;;;4986332;28;19965;-63
2023/05/12 12:21:02;;;;;;;;;;;35.80;20.80;;;;;;4992992;28;19988;-63
2023/05/12 12:23:28;;;;;;;;;;;35.60;20.70;;;;;;4992621;28;19910;-63
2023/05/12 12:25:53;;;;;;;;;;;35.50;19.10;;;;;;4992550;28;19926;-65
2023/05/12 12:28:19;;;;;;;;;;;35.30;20.10;;;;;;4993816;28;20285;-67
2023/05/12 12:30:44;;;;;;;;;;;35.60;20.30;;;;;;4996268;28;20004;-67
2023/05/12 12:33:10;;;;;;;;;;;35.60;19.20;;;;;;4994519;28;19921;-68
2023/05/12 12:35:35;;;;;;;;;;;35.50;18.30;;;;;;4995384;28;19960;-68
2023/05/12 12:38:01;;;;;;;;;;;35.50;18.70;;;;;;4993831;28;19914;-67
2023/05/12 12:40:26;;;;;;;;;;;35.60;19.70;;;;;;4994050;28;20431;-68
2023/05/12 12:42:52;;;;;;;;;;;35.80;19.50;;;;;;4994634;28;19918;-68
2023/05/12 12:45:17;;;;;;;;;;;35.70;19.50;;;;;;4995208;28;20008;-68
2023/05/12 12:47:43;;;;;;;;;;;35.50;19.70;;;;;;4992595;28;19929;-68
2023/05/12 12:50:09;;;;;;;;;;;35.50;19.50;;;;;;4994138;28;20030;-63
2023/05/12 12:52:35;;;;;;;;;;;35.60;19.60;;;;;;4991792;28;20384;-62
2023/05/12 12:55:01;;;;;;;;;;;35.40;19.90;;;;;;4992888;28;20016;-68
2023/05/12 12:57:26;;;;;;;;;;;34.90;19.90;;;;;;4992918;28;20287;-68
2023/05/12 12:59:52;;;;;;;;;;;34.10;20.80;;;;;;4996428;28;19922;-69
2023/05/12 13:02:18;;;;;;;;;;;33.80;22.10;;;;;;4996109;28;19914;-68
2023/05/12 13:04:43;;;;;;;;;;;33.40;21.00;;;;;;4997384;28;19925;-67
2023/05/12 13:07:09;;;;;;;;;;;33.20;21.00;;;;;;4997404;28;19913;-69
2023/05/12 13:09:34;;;;;;;;;;;32.70;21.60;;;;;;4997899;28;19918;-68
2023/05/12 13:12:00;;;;;;;;;;;32.10;22.10;;;;;;4996899;28;19917;-68
2023/05/12 13:14:25;;;;;;;;;;;32.50;22.50;;;;;;4997716;28;20320;-69
2023/05/12 13:16:51;;;;;;;;;;;33.10;21.60;;;;;;4996988;28;19918;-68
2023/05/12 13:19:17;;;;;;;;;;;33.50;20.40;;;;;;4997537;28;19992;-69
2023/05/12 13:21:42;;;;;;;;;;;33.10;20.30;;;;;;4999038;28;20003;-69
2023/05/12 13:24:08;;;;;;;;;;;32.80;20.60;;;;;;4998664;28;19914;-68
2023/05/12 13:26:33;;;;;;;;;;;32.40;21.10;;;;;;4998963;28;19926;-69
2023/05/12 13:28:58;;;;;;;;;;;31.80;21.80;;;;;;5014446;28;19964;-68
2023/05/12 13:31:24;;;;;;;;;;;31.20;22.90;;;;;;4998455;28;20292;-67
2023/05/12 13:33:50;;;;;;;;;;;31.10;23.20;;;;;;4999586;28;19914;-68
2023/05/12 13:36:15;;;;;;;;;;;31.00;23.30;;;;;;4999457;28;19918;-68
2023/05/12 13:38:40;;;;;;;;;;;30.70;23.40;;;;;;5015803;28;20323;-68
2023/05/12 13:41:06;;;;;;;;;;;30.50;24.00;;;;;;4999450;28;19933;-69
2023/05/12 13:43:31;;;;;;;;;;;30.50;24.30;;;;;;4995980;28;19921;-68
2023/05/12 13:45:57;;;;;;;;;;;31.00;23.70;;;;;;4998293;28;19941;-68
2023/05/12 13:48:22;;;;;;;;;;;30.90;22.60;;;;;;4998788;28;19948;-68
2023/05/12 13:50:48;;;;;;;;;;;30.60;22.60;;;;;;4986808;28;19926;-68
2023/05/12 13:53:14;;;;;;;;;;;30.30;21.90;;;;;;4980811;28;19914;-69
2023/05/12 13:55:40;;;;;;;;;;;30.10;22.60;;;;;;4996330;28;19948;-69
2023/05/12 13:58:06;;;;;;;;;;;30.00;22.40;;;;;;4998778;28;19920;-69
2023/05/12 14:00:31;;;;;;;;;;;29.90;22.00;;;;;;4999690;28;19918;-68
2023/05/12 14:02:56;;;;;;;;;;;29.80;22.00;;;;;;4998976;28;19914;-69
2023/05/12 14:05:22;;;;;;;;;;;29.80;22.80;;;;;;4991508;28;19918;-68
2023/05/12 14:07:47;;;;;;;;;;;29.70;23.20;;;;;;4992324;28;19933;-69
2023/05/12 14:10:13;;;;;;;;;;;30.10;23.50;;;;;;4979833;28;19944;-69